sensor_id;sensor_type;location;lat;lon;timestamp;temperature;humidity
52159;DHT22;38145;53.182;6.284;2022-12-24T00:00:12;6.60;99.90
52159;DHT22;38145;53.182;6.284;2022-12-24T00:02:37;6.20;99.90
52159;DHT22;38145;53.182;6.284;2022-12-24T00:05:03;6.20;99.90
52159;DHT22;38145;53.182;6.284;2022-12-24T00:07:29;6.20;99.90
52159;DHT22;38145;53.182;6.284;2022-12-24T00:09:55;6.20;99.90
52159;DHT22;38145;53.182;6.284;2022-12-24T00:12:21;6.60;99.90
52159;DHT22;38145;53.182;6.284;2022-12-24T00:14:46;6.40;99.90
52159;DHT22;38145;53.182;6.284;2022-12-24T00:17:12;6.30;99.90
52159;DHT22;38145;53.182;6.284;2022-12-24T00:19:38;6.30;99.90
52159;DHT22;38145;53.182;6.284;2022-12-24T00:22:03;6.20;99.90
52159;DHT22;38145;53.182;6.284;2022-12-24T00:24:29;6.50;99.90
52159;DHT22;38145;53.182;6.284;2022-12-24T00:26:54;6.60;99.90
52159;DHT22;38145;53.182;6.284;2022-12-24T00:29:20;6.60;99.90
52159;DHT22;38145;53.182;6.284;2022-12-24T00:31:46;6.50;99.90
52159;DHT22;38145;53.182;6.284;2022-12-24T00:34:11;6.40;99.90
52159;DHT22;38145;53.182;6.284;2022-12-24T00:36:37;6.20;99.90
52159;DHT22;38145;53.182;6.284;2022-12-24T00:39:02;6.30;99.90
52159;DHT22;38145;53.182;6.284;2022-12-24T00:41:28;6.70;99.90
52159;DHT22;38145;53.182;6.284;2022-12-24T00:43:56;6.60;99.90
52159;DHT22;38145;53.182;6.284;2022-12-24T00:46:22;6.20;99.90
52159;DHT22;38145;53.182;6.284;2022-12-24T00:48:48;6.70;99.90
52159;DHT22;38145;53.182;6.284;2022-12-24T00:51:13;6.40;99.90
52159;DHT22;38145;53.182;6.284;2022-12-24T00:53:39;6.20;99.90
52159;DHT22;38145;53.182;6.284;2022-12-24T00:56:05;6.70;99.90
52159;DHT22;38145;53.182;6.284;2022-12-24T00:58:31;6.20;99.90
52159;DHT22;38145;53.182;6.284;2022-12-24T01:00:56;6.50;99.90
52159;DHT22;38145;53.182;6.284;2022-12-24T01:03:23;6.30;99.90
52159;DHT22;38145;53.182;6.284;2022-12-24T01:05:58;6.70;99.90
52159;DHT22;38145;53.182;6.284;2022-12-24T01:08:24;6.30;99.90
52159;DHT22;38145;53.182;6.284;2022-12-24T01:10:49;6.80;99.90
52159;DHT22;38145;53.182;6.284;2022-12-24T01:13:15;6.60;99.90
52159;DHT22;38145;53.182;6.284;2022-12-24T01:15:41;6.80;99.90
52159;DHT22;38145;53.182;6.284;2022-12-24T01:18:06;6.30;99.90
52159;DHT22;38145;53.182;6.284;2022-12-24T01:20:32;6.70;99.90
52159;DHT22;38145;53.182;6.284;2022-12-24T01:22:57;6.70;99.90
52159;DHT22;38145;53.182;6.284;2022-12-24T01:25:23;6.30;99.90
52159;DHT22;38145;53.182;6.284;2022-12-24T01:27:49;6.70;99.90
52159;DHT22;38145;53.182;6.284;2022-12-24T01:30:14;6.40;99.90
52159;DHT22;38145;53.182;6.284;2022-12-24T01:32:40;6.80;99.90
52159;DHT22;38145;53.182;6.284;2022-12-24T01:35:06;6.50;99.90
52159;DHT22;38145;53.182;6.284;2022-12-24T01:37:32;6.30;99.90
52159;DHT22;38145;53.182;6.284;2022-12-24T01:39:57;6.30;99.90
52159;DHT22;38145;53.182;6.284;2022-12-24T01:42:43;6.40;99.90
52159;DHT22;38145;53.182;6.284;2022-12-24T01:48:01;6.50;99.90
52159;DHT22;38145;53.182;6.284;2022-12-24T01:50:28;6.40;99.90
52159;DHT22;38145;53.182;6.284;2022-12-24T01:52:54;6.40;99.90
52159;DHT22;38145;53.182;6.284;2022-12-24T01:55:21;6.40;99.90
52159;DHT22;38145;53.182;6.284;2022-12-24T01:57:48;6.80;99.90
52159;DHT22;38145;53.182;6.284;2022-12-24T02:00:15;6.40;99.90
52159;DHT22;38145;53.182;6.284;2022-12-24T02:02:42;6.40;99.90
52159;DHT22;38145;53.182;6.284;2022-12-24T02:05:11;6.80;99.90
52159;DHT22;38145;53.182;6.284;2022-12-24T02:07:45;6.90;99.90
52159;DHT22;38145;53.182;6.284;2022-12-24T02:10:11;6.40;99.90
52159;DHT22;38145;53.182;6.284;2022-12-24T02:12:37;6.40;99.90
52159;DHT22;38145;53.182;6.284;2022-12-24T02:15:04;6.70;99.90
52159;DHT22;38145;53.182;6.284;2022-12-24T02:17:34;6.80;99.90
52159;DHT22;38145;53.182;6.284;2022-12-24T02:20:22;6.50;99.90
52159;DHT22;38145;53.182;6.284;2022-12-24T02:30:33;6.80;99.90
52159;DHT22;38145;53.182;6.284;2022-12-24T02:33:10;6.60;99.90
52159;DHT22;38145;53.182;6.284;2022-12-24T02:38:07;6.90;99.90
52159;DHT22;38145;53.182;6.284;2022-12-24T02:40:37;6.50;99.90
52159;DHT22;38145;53.182;6.284;2022-12-24T02:43:12;6.50;99.90
52159;DHT22;38145;53.182;6.284;2022-12-24T02:45:39;6.80;99.90
52159;DHT22;38145;53.182;6.284;2022-12-24T02:48:06;6.90;99.90
52159;DHT22;38145;53.182;6.284;2022-12-24T02:50:32;6.90;99.90
52159;DHT22;38145;53.182;6.284;2022-12-24T02:52:59;6.50;99.90
52159;DHT22;38145;53.182;6.284;2022-12-24T02:55:32;6.90;99.90
52159;DHT22;38145;53.182;6.284;2022-12-24T02:58:06;6.70;99.90
52159;DHT22;38145;53.182;6.284;2022-12-24T03:00:42;6.90;99.90
52159;DHT22;38145;53.182;6.284;2022-12-24T03:03:19;7.00;99.90
52159;DHT22;38145;53.182;6.284;2022-12-24T03:05:50;6.80;99.90
52159;DHT22;38145;53.182;6.284;2022-12-24T03:08:27;6.90;99.90
52159;DHT22;38145;53.182;6.284;2022-12-24T03:11:07;7.20;99.90
52159;DHT22;38145;53.182;6.284;2022-12-24T03:13:33;7.50;99.90
52159;DHT22;38145;53.182;6.284;2022-12-24T03:15:59;7.40;99.90
52159;DHT22;38145;53.182;6.284;2022-12-24T03:18:27;7.30;99.90
52159;DHT22;38145;53.182;6.284;2022-12-24T03:20:57;7.80;99.90
52159;DHT22;38145;53.182;6.284;2022-12-24T03:23:24;7.60;99.90
52159;DHT22;38145;53.182;6.284;2022-12-24T03:25:50;7.80;99.90
52159;DHT22;38145;53.182;6.284;2022-12-24T03:28:16;7.50;99.90
52159;DHT22;38145;53.182;6.284;2022-12-24T03:30:43;7.50;99.90
52159;DHT22;38145;53.182;6.284;2022-12-24T03:33:10;7.50;99.90
52159;DHT22;38145;53.182;6.284;2022-12-24T03:35:36;7.50;99.90
52159;DHT22;38145;53.182;6.284;2022-12-24T03:38:01;7.50;99.90
52159;DHT22;38145;53.182;6.284;2022-12-24T03:40:27;7.70;99.90
52159;DHT22;38145;53.182;6.284;2022-12-24T03:42:53;7.70;99.90
52159;DHT22;38145;53.182;6.284;2022-12-24T03:45:18;7.60;99.90
52159;DHT22;38145;53.182;6.284;2022-12-24T03:47:44;7.30;99.90
52159;DHT22;38145;53.182;6.284;2022-12-24T03:50:09;7.80;99.90
52159;DHT22;38145;53.182;6.284;2022-12-24T03:52:35;7.40;99.90
52159;DHT22;38145;53.182;6.284;2022-12-24T03:55:01;7.90;99.90
52159;DHT22;38145;53.182;6.284;2022-12-24T03:57:26;7.70;99.90
52159;DHT22;38145;53.182;6.284;2022-12-24T03:59:52;7.80;99.90
52159;DHT22;38145;53.182;6.284;2022-12-24T04:02:18;8.00;99.90
52159;DHT22;38145;53.182;6.284;2022-12-24T04:04:43;8.10;99.90
52159;DHT22;38145;53.182;6.284;2022-12-24T04:07:09;7.70;99.90
52159;DHT22;38145;53.182;6.284;2022-12-24T04:09:35;7.90;99.90
52159;DHT22;38145;53.182;6.284;2022-12-24T04:12:00;7.80;99.90
52159;DHT22;38145;53.182;6.284;2022-12-24T04:14:26;7.70;99.90
52159;DHT22;38145;53.182;6.284;2022-12-24T04:16:52;8.10;99.90
52159;DHT22;38145;53.182;6.284;2022-12-24T04:19:17;8.10;99.90
52159;DHT22;38145;53.182;6.284;2022-12-24T04:21:43;7.70;99.90
52159;DHT22;38145;53.182;6.284;2022-12-24T04:24:09;7.90;99.90
52159;DHT22;38145;53.182;6.284;2022-12-24T04:26:34;7.70;99.90
52159;DHT22;38145;53.182;6.284;2022-12-24T04:29:00;8.00;99.90
52159;DHT22;38145;53.182;6.284;2022-12-24T04:31:26;8.10;99.90
52159;DHT22;38145;53.182;6.284;2022-12-24T04:33:51;7.60;99.90
52159;DHT22;38145;53.182;6.284;2022-12-24T04:36:18;8.00;99.90
52159;DHT22;38145;53.182;6.284;2022-12-24T04:38:44;8.00;99.90
52159;DHT22;38145;53.182;6.284;2022-12-24T04:41:11;7.70;99.90
52159;DHT22;38145;53.182;6.284;2022-12-24T04:43:37;7.80;99.90
52159;DHT22;38145;53.182;6.284;2022-12-24T04:46:04;7.90;99.90
52159;DHT22;38145;53.182;6.284;2022-12-24T04:48:30;7.70;99.90
52159;DHT22;38145;53.182;6.284;2022-12-24T04:50:56;8.00;99.90
52159;DHT22;38145;53.182;6.284;2022-12-24T04:53:21;7.90;99.90
52159;DHT22;38145;53.182;6.284;2022-12-24T04:55:47;7.60;99.90
52159;DHT22;38145;53.182;6.284;2022-12-24T04:58:13;7.80;99.90
52159;DHT22;38145;53.182;6.284;2022-12-24T05:00:39;7.70;99.90
52159;DHT22;38145;53.182;6.284;2022-12-24T05:03:04;7.90;99.90
52159;DHT22;38145;53.182;6.284;2022-12-24T05:05:30;7.60;99.90
52159;DHT22;38145;53.182;6.284;2022-12-24T05:07:55;7.70;99.90
52159;DHT22;38145;53.182;6.284;2022-12-24T05:10:21;7.80;99.90
52159;DHT22;38145;53.182;6.284;2022-12-24T05:12:47;7.80;99.90
52159;DHT22;38145;53.182;6.284;2022-12-24T05:15:12;7.70;99.90
52159;DHT22;38145;53.182;6.284;2022-12-24T05:17:38;7.70;99.90
52159;DHT22;38145;53.182;6.284;2022-12-24T05:20:04;7.60;99.90
52159;DHT22;38145;53.182;6.284;2022-12-24T05:22:29;7.60;99.90
52159;DHT22;38145;53.182;6.284;2022-12-24T05:25:13;7.60;99.90
52159;DHT22;38145;53.182;6.284;2022-12-24T05:27:58;7.90;99.90
52159;DHT22;38145;53.182;6.284;2022-12-24T05:30:23;7.90;99.90
52159;DHT22;38145;53.182;6.284;2022-12-24T05:32:49;7.90;99.90
52159;DHT22;38145;53.182;6.284;2022-12-24T05:35:14;7.50;99.90
52159;DHT22;38145;53.182;6.284;2022-12-24T05:37:40;7.50;99.90
52159;DHT22;38145;53.182;6.284;2022-12-24T05:40:06;7.50;99.90
52159;DHT22;38145;53.182;6.284;2022-12-24T05:42:32;7.60;99.90
52159;DHT22;38145;53.182;6.284;2022-12-24T05:44:57;7.50;99.90
52159;DHT22;38145;53.182;6.284;2022-12-24T05:47:23;7.50;99.90
52159;DHT22;38145;53.182;6.284;2022-12-24T05:49:48;7.70;99.90
52159;DHT22;38145;53.182;6.284;2022-12-24T05:52:14;7.60;99.90
52159;DHT22;38145;53.182;6.284;2022-12-24T05:54:40;7.90;99.90
52159;DHT22;38145;53.182;6.284;2022-12-24T05:57:05;7.90;99.90
52159;DHT22;38145;53.182;6.284;2022-12-24T05:59:31;7.90;99.90
52159;DHT22;38145;53.182;6.284;2022-12-24T06:01:56;7.90;99.90
52159;DHT22;38145;53.182;6.284;2022-12-24T06:04:22;7.50;99.90
52159;DHT22;38145;53.182;6.284;2022-12-24T06:06:48;7.90;99.90
52159;DHT22;38145;53.182;6.284;2022-12-24T06:09:13;7.80;99.90
52159;DHT22;38145;53.182;6.284;2022-12-24T06:11:39;7.60;99.90
52159;DHT22;38145;53.182;6.284;2022-12-24T06:14:05;7.90;99.90
52159;DHT22;38145;53.182;6.284;2022-12-24T06:16:30;7.80;99.90
52159;DHT22;38145;53.182;6.284;2022-12-24T06:18:56;7.70;99.90
52159;DHT22;38145;53.182;6.284;2022-12-24T06:21:22;7.60;99.90
52159;DHT22;38145;53.182;6.284;2022-12-24T06:23:47;7.70;99.90
52159;DHT22;38145;53.182;6.284;2022-12-24T06:26:14;7.60;99.90
52159;DHT22;38145;53.182;6.284;2022-12-24T06:28:40;7.60;99.90
52159;DHT22;38145;53.182;6.284;2022-12-24T06:31:09;8.00;99.90
52159;DHT22;38145;53.182;6.284;2022-12-24T06:33:36;7.70;99.90
52159;DHT22;38145;53.182;6.284;2022-12-24T06:36:01;7.70;99.90
52159;DHT22;38145;53.182;6.284;2022-12-24T06:38:30;7.70;99.90
52159;DHT22;38145;53.182;6.284;2022-12-24T06:40:56;7.90;99.90
52159;DHT22;38145;53.182;6.284;2022-12-24T06:43:21;8.10;99.90
52159;DHT22;38145;53.182;6.284;2022-12-24T06:45:47;7.90;99.90
52159;DHT22;38145;53.182;6.284;2022-12-24T06:48:13;8.00;99.90
52159;DHT22;38145;53.182;6.284;2022-12-24T06:50:39;8.00;99.90
52159;DHT22;38145;53.182;6.284;2022-12-24T06:53:04;8.10;99.90
52159;DHT22;38145;53.182;6.284;2022-12-24T06:55:30;7.60;99.90
52159;DHT22;38145;53.182;6.284;2022-12-24T06:57:56;7.70;99.90
52159;DHT22;38145;53.182;6.284;2022-12-24T07:00:22;7.60;99.90
52159;DHT22;38145;53.182;6.284;2022-12-24T07:02:47;7.70;99.90
52159;DHT22;38145;53.182;6.284;2022-12-24T07:05:13;7.70;99.90
52159;DHT22;38145;53.182;6.284;2022-12-24T07:07:40;8.00;99.90
52159;DHT22;38145;53.182;6.284;2022-12-24T07:10:06;7.80;99.90
52159;DHT22;38145;53.182;6.284;2022-12-24T07:12:32;7.60;99.90
52159;DHT22;38145;53.182;6.284;2022-12-24T07:14:57;8.00;99.90
52159;DHT22;38145;53.182;6.284;2022-12-24T07:17:23;7.90;99.90
52159;DHT22;38145;53.182;6.284;2022-12-24T07:19:49;7.90;99.90
52159;DHT22;38145;53.182;6.284;2022-12-24T07:22:14;8.00;99.90
52159;DHT22;38145;53.182;6.284;2022-12-24T07:24:40;8.00;99.90
52159;DHT22;38145;53.182;6.284;2022-12-24T07:27:06;8.00;99.90
52159;DHT22;38145;53.182;6.284;2022-12-24T07:29:31;8.00;99.90
52159;DHT22;38145;53.182;6.284;2022-12-24T07:31:57;7.70;99.90
52159;DHT22;38145;53.182;6.284;2022-12-24T07:34:22;8.00;99.90
52159;DHT22;38145;53.182;6.284;2022-12-24T07:36:48;7.70;99.90
52159;DHT22;38145;53.182;6.284;2022-12-24T07:39:14;8.20;99.90
52159;DHT22;38145;53.182;6.284;2022-12-24T07:41:39;8.10;99.90
52159;DHT22;38145;53.182;6.284;2022-12-24T07:44:05;8.20;99.90
52159;DHT22;38145;53.182;6.284;2022-12-24T07:46:31;8.20;99.90
52159;DHT22;38145;53.182;6.284;2022-12-24T07:48:57;8.10;99.90
52159;DHT22;38145;53.182;6.284;2022-12-24T07:51:22;7.80;99.90
52159;DHT22;38145;53.182;6.284;2022-12-24T07:53:48;8.10;99.90
52159;DHT22;38145;53.182;6.284;2022-12-24T07:56:14;7.80;99.90
52159;DHT22;38145;53.182;6.284;2022-12-24T07:58:40;7.80;99.90
52159;DHT22;38145;53.182;6.284;2022-12-24T08:01:05;7.80;99.90
52159;DHT22;38145;53.182;6.284;2022-12-24T08:03:31;8.20;99.90
52159;DHT22;38145;53.182;6.284;2022-12-24T08:05:57;7.70;99.90
52159;DHT22;38145;53.182;6.284;2022-12-24T08:08:23;7.90;99.90
52159;DHT22;38145;53.182;6.284;2022-12-24T08:10:49;7.80;99.90
52159;DHT22;38145;53.182;6.284;2022-12-24T08:13:16;8.10;99.90
52159;DHT22;38145;53.182;6.284;2022-12-24T08:15:42;8.00;99.90
52159;DHT22;38145;53.182;6.284;2022-12-24T08:18:08;7.80;99.90
52159;DHT22;38145;53.182;6.284;2022-12-24T08:20:33;7.50;99.90
52159;DHT22;38145;53.182;6.284;2022-12-24T08:22:59;7.70;99.90
52159;DHT22;38145;53.182;6.284;2022-12-24T08:25:24;7.60;99.90
52159;DHT22;38145;53.182;6.284;2022-12-24T08:27:52;7.90;99.90
52159;DHT22;38145;53.182;6.284;2022-12-24T08:30:18;7.90;99.90
52159;DHT22;38145;53.182;6.284;2022-12-24T08:32:43;7.60;99.90
52159;DHT22;38145;53.182;6.284;2022-12-24T08:35:09;8.00;99.90
52159;DHT22;38145;53.182;6.284;2022-12-24T08:37:35;7.60;99.90
52159;DHT22;38145;53.182;6.284;2022-12-24T08:40:01;7.70;99.90
52159;DHT22;38145;53.182;6.284;2022-12-24T08:42:26;8.10;99.90
52159;DHT22;38145;53.182;6.284;2022-12-24T08:44:52;7.70;99.90
52159;DHT22;38145;53.182;6.284;2022-12-24T08:47:17;7.70;99.90
52159;DHT22;38145;53.182;6.284;2022-12-24T08:49:43;8.10;99.90
52159;DHT22;38145;53.182;6.284;2022-12-24T08:52:09;8.20;99.90
52159;DHT22;38145;53.182;6.284;2022-12-24T08:54:35;8.10;99.90
52159;DHT22;38145;53.182;6.284;2022-12-24T08:57:01;8.10;99.90
52159;DHT22;38145;53.182;6.284;2022-12-24T08:59:27;8.30;99.90
52159;DHT22;38145;53.182;6.284;2022-12-24T09:01:52;8.30;99.90
52159;DHT22;38145;53.182;6.284;2022-12-24T09:04:18;8.30;99.90
52159;DHT22;38145;53.182;6.284;2022-12-24T09:06:44;8.30;99.90
52159;DHT22;38145;53.182;6.284;2022-12-24T09:09:10;8.10;99.90
52159;DHT22;38145;53.182;6.284;2022-12-24T09:11:35;8.00;99.90
52159;DHT22;38145;53.182;6.284;2022-12-24T09:14:01;8.30;99.90
52159;DHT22;38145;53.182;6.284;2022-12-24T09:16:27;8.40;99.90
52159;DHT22;38145;53.182;6.284;2022-12-24T09:18:53;8.20;99.90
52159;DHT22;38145;53.182;6.284;2022-12-24T09:21:19;8.30;99.90
52159;DHT22;38145;53.182;6.284;2022-12-24T09:23:45;8.00;99.90
52159;DHT22;38145;53.182;6.284;2022-12-24T09:26:14;8.50;99.90
52159;DHT22;38145;53.182;6.284;2022-12-24T09:28:40;8.20;99.90
52159;DHT22;38145;53.182;6.284;2022-12-24T09:31:06;8.10;99.90
52159;DHT22;38145;53.182;6.284;2022-12-24T09:33:33;8.20;99.90
52159;DHT22;38145;53.182;6.284;2022-12-24T09:35:59;8.10;99.90
52159;DHT22;38145;53.182;6.284;2022-12-24T09:38:25;8.10;99.90
52159;DHT22;38145;53.182;6.284;2022-12-24T09:40:51;8.20;99.90
52159;DHT22;38145;53.182;6.284;2022-12-24T09:43:20;8.40;99.90
52159;DHT22;38145;53.182;6.284;2022-12-24T09:48:22;8.30;99.90
52159;DHT22;38145;53.182;6.284;2022-12-24T09:50:52;8.40;99.90
52159;DHT22;38145;53.182;6.284;2022-12-24T09:53:21;8.80;99.90
52159;DHT22;38145;53.182;6.284;2022-12-24T09:55:50;8.30;99.90
52159;DHT22;38145;53.182;6.284;2022-12-24T09:58:20;8.30;99.90
52159;DHT22;38145;53.182;6.284;2022-12-24T10:00:47;8.70;99.90
52159;DHT22;38145;53.182;6.284;2022-12-24T10:03:14;8.90;99.90
52159;DHT22;38145;53.182;6.284;2022-12-24T10:05:42;8.60;99.90
52159;DHT22;38145;53.182;6.284;2022-12-24T10:10:50;8.70;99.90
52159;DHT22;38145;53.182;6.284;2022-12-24T10:15:53;8.60;99.90
52159;DHT22;38145;53.182;6.284;2022-12-24T10:18:26;9.00;99.90
52159;DHT22;38145;53.182;6.284;2022-12-24T10:23:23;9.30;99.90
52159;DHT22;38145;53.182;6.284;2022-12-24T10:26:03;9.20;99.90
52159;DHT22;38145;53.182;6.284;2022-12-24T10:28:41;9.10;99.90
52159;DHT22;38145;53.182;6.284;2022-12-24T10:31:08;9.40;99.90
52159;DHT22;38145;53.182;6.284;2022-12-24T10:33:37;9.10;99.90
52159;DHT22;38145;53.182;6.284;2022-12-24T10:36:05;9.00;99.90
52159;DHT22;38145;53.182;6.284;2022-12-24T10:38:33;9.30;99.90
52159;DHT22;38145;53.182;6.284;2022-12-24T10:40:59;9.30;99.90
52159;DHT22;38145;53.182;6.284;2022-12-24T10:43:27;9.00;99.90
52159;DHT22;38145;53.182;6.284;2022-12-24T10:45:55;9.30;99.90
52159;DHT22;38145;53.182;6.284;2022-12-24T10:48:23;9.30;99.90
52159;DHT22;38145;53.182;6.284;2022-12-24T10:50:52;9.10;99.90
52159;DHT22;38145;53.182;6.284;2022-12-24T10:53:23;9.20;99.90
52159;DHT22;38145;53.182;6.284;2022-12-24T10:55:59;9.40;99.90
52159;DHT22;38145;53.182;6.284;2022-12-24T10:58:25;9.00;99.90
52159;DHT22;38145;53.182;6.284;2022-12-24T11:00:51;9.40;99.90
52159;DHT22;38145;53.182;6.284;2022-12-24T11:05:43;9.40;99.90
52159;DHT22;38145;53.182;6.284;2022-12-24T11:10:39;9.20;99.90
52159;DHT22;38145;53.182;6.284;2022-12-24T11:13:05;9.40;99.90
52159;DHT22;38145;53.182;6.284;2022-12-24T11:15:43;9.40;99.90
52159;DHT22;38145;53.182;6.284;2022-12-24T11:18:12;9.00;99.90
52159;DHT22;38145;53.182;6.284;2022-12-24T11:20:39;9.10;99.90
52159;DHT22;38145;53.182;6.284;2022-12-24T11:23:05;9.20;99.90
52159;DHT22;38145;53.182;6.284;2022-12-24T11:25:31;9.30;99.90
52159;DHT22;38145;53.182;6.284;2022-12-24T11:30:54;9.00;99.90
52159;DHT22;38145;53.182;6.284;2022-12-24T11:33:20;9.20;99.90
52159;DHT22;38145;53.182;6.284;2022-12-24T11:35:47;9.20;99.90
52159;DHT22;38145;53.182;6.284;2022-12-24T11:38:17;9.20;99.90
52159;DHT22;38145;53.182;6.284;2022-12-24T11:40:45;9.30;99.90
52159;DHT22;38145;53.182;6.284;2022-12-24T11:43:14;9.20;99.90
52159;DHT22;38145;53.182;6.284;2022-12-24T11:45:46;9.10;99.90
52159;DHT22;38145;53.182;6.284;2022-12-24T11:48:26;9.30;99.90
52159;DHT22;38145;53.182;6.284;2022-12-24T11:50:56;9.30;99.90
52159;DHT22;38145;53.182;6.284;2022-12-24T11:53:23;9.30;99.90
52159;DHT22;38145;53.182;6.284;2022-12-24T11:55:51;9.20;99.90
52159;DHT22;38145;53.182;6.284;2022-12-24T11:58:26;9.30;99.90
52159;DHT22;38145;53.182;6.284;2022-12-24T12:00:58;9.10;99.90
52159;DHT22;38145;53.182;6.284;2022-12-24T12:03:29;9.20;99.90
52159;DHT22;38145;53.182;6.284;2022-12-24T12:05:57;9.10;99.90
52159;DHT22;38145;53.182;6.284;2022-12-24T12:08:24;9.30;99.90
52159;DHT22;38145;53.182;6.284;2022-12-24T12:10:52;9.00;99.90
52159;DHT22;38145;53.182;6.284;2022-12-24T12:13:19;9.30;99.90
52159;DHT22;38145;53.182;6.284;2022-12-24T12:15:48;9.10;99.90
52159;DHT22;38145;53.182;6.284;2022-12-24T12:18:18;9.30;99.90
52159;DHT22;38145;53.182;6.284;2022-12-24T12:25:45;9.10;99.90
52159;DHT22;38145;53.182;6.284;2022-12-24T12:28:16;9.20;99.90
52159;DHT22;38145;53.182;6.284;2022-12-24T12:30:43;9.10;99.90
52159;DHT22;38145;53.182;6.284;2022-12-24T12:33:23;9.20;99.90
52159;DHT22;38145;53.182;6.284;2022-12-24T12:35:51;9.30;99.90
52159;DHT22;38145;53.182;6.284;2022-12-24T12:40:47;9.20;99.90
52159;DHT22;38145;53.182;6.284;2022-12-24T12:43:32;9.20;99.90
52159;DHT22;38145;53.182;6.284;2022-12-24T12:48:38;9.40;99.90
52159;DHT22;38145;53.182;6.284;2022-12-24T12:51:08;9.20;99.90
52159;DHT22;38145;53.182;6.284;2022-12-24T12:53:47;9.10;99.90
52159;DHT22;38145;53.182;6.284;2022-12-24T12:58:46;9.10;99.90
52159;DHT22;38145;53.182;6.284;2022-12-24T13:01:15;9.30;99.90
52159;DHT22;38145;53.182;6.284;2022-12-24T13:06:11;9.20;99.90
52159;DHT22;38145;53.182;6.284;2022-12-24T13:11:53;9.20;99.90
52159;DHT22;38145;53.182;6.284;2022-12-24T13:14:34;9.40;99.90
52159;DHT22;38145;53.182;6.284;2022-12-24T13:19:33;9.40;99.90
52159;DHT22;38145;53.182;6.284;2022-12-24T13:22:02;9.20;99.90
52159;DHT22;38145;53.182;6.284;2022-12-24T13:24:28;9.20;99.90
52159;DHT22;38145;53.182;6.284;2022-12-24T13:27:02;9.20;99.90
52159;DHT22;38145;53.182;6.284;2022-12-24T13:29:29;9.30;99.90
52159;DHT22;38145;53.182;6.284;2022-12-24T13:34:48;9.10;99.90
52159;DHT22;38145;53.182;6.284;2022-12-24T13:37:20;9.20;99.90
52159;DHT22;38145;53.182;6.284;2022-12-24T13:47:53;8.90;99.90
52159;DHT22;38145;53.182;6.284;2022-12-24T13:50:22;9.10;99.90
52159;DHT22;38145;53.182;6.284;2022-12-24T13:52:50;9.00;99.90
52159;DHT22;38145;53.182;6.284;2022-12-24T13:55:16;8.80;99.90
52159;DHT22;38145;53.182;6.284;2022-12-24T13:57:43;8.90;99.90
52159;DHT22;38145;53.182;6.284;2022-12-24T14:02:53;8.90;99.90
52159;DHT22;38145;53.182;6.284;2022-12-24T14:07:48;8.70;99.90
52159;DHT22;38145;53.182;6.284;2022-12-24T14:10:33;8.70;99.90
52159;DHT22;38145;53.182;6.284;2022-12-24T14:12:59;8.70;99.90
52159;DHT22;38145;53.182;6.284;2022-12-24T14:18:09;8.60;99.90
52159;DHT22;38145;53.182;6.284;2022-12-24T14:20:35;8.60;99.90
52159;DHT22;38145;53.182;6.284;2022-12-24T14:23:01;8.60;99.90
52159;DHT22;38145;53.182;6.284;2022-12-24T14:25:29;8.70;99.90
52159;DHT22;38145;53.182;6.284;2022-12-24T14:27:58;8.60;99.90
52159;DHT22;38145;53.182;6.284;2022-12-24T14:30:25;8.50;99.90
52159;DHT22;38145;53.182;6.284;2022-12-24T14:32:51;8.40;99.90
52159;DHT22;38145;53.182;6.284;2022-12-24T14:35:18;8.50;99.90
52159;DHT22;38145;53.182;6.284;2022-12-24T14:37:45;8.50;99.90
52159;DHT22;38145;53.182;6.284;2022-12-24T14:40:14;8.40;99.90
52159;DHT22;38145;53.182;6.284;2022-12-24T14:42:45;8.30;99.90
52159;DHT22;38145;53.182;6.284;2022-12-24T14:52:48;8.30;99.90
52159;DHT22;38145;53.182;6.284;2022-12-24T14:55:26;8.20;99.90
52159;DHT22;38145;53.182;6.284;2022-12-24T14:58:12;8.20;99.90
52159;DHT22;38145;53.182;6.284;2022-12-24T15:00:38;8.30;99.90
52159;DHT22;38145;53.182;6.284;2022-12-24T15:03:11;8.10;99.90
52159;DHT22;38145;53.182;6.284;2022-12-24T15:05:37;8.20;99.90
52159;DHT22;38145;53.182;6.284;2022-12-24T15:08:06;8.10;99.90
52159;DHT22;38145;53.182;6.284;2022-12-24T15:10:35;8.00;99.90
52159;DHT22;38145;53.182;6.284;2022-12-24T15:13:03;8.00;99.90
52159;DHT22;38145;53.182;6.284;2022-12-24T15:15:29;7.80;99.90
52159;DHT22;38145;53.182;6.284;2022-12-24T15:17:55;7.80;99.90
52159;DHT22;38145;53.182;6.284;2022-12-24T15:20:23;7.90;99.90
52159;DHT22;38145;53.182;6.284;2022-12-24T15:22:50;7.70;99.90
52159;DHT22;38145;53.182;6.284;2022-12-24T15:25:18;7.70;99.90
52159;DHT22;38145;53.182;6.284;2022-12-24T15:27:44;7.80;99.90
52159;DHT22;38145;53.182;6.284;2022-12-24T15:30:12;7.70;99.90
52159;DHT22;38145;53.182;6.284;2022-12-24T15:32:38;7.70;99.90
52159;DHT22;38145;53.182;6.284;2022-12-24T15:35:04;7.50;99.90
52159;DHT22;38145;53.182;6.284;2022-12-24T15:37:30;7.50;99.90
52159;DHT22;38145;53.182;6.284;2022-12-24T15:40:05;7.50;99.90
52159;DHT22;38145;53.182;6.284;2022-12-24T15:42:31;7.50;99.90
52159;DHT22;38145;53.182;6.284;2022-12-24T15:45:00;7.40;99.90
52159;DHT22;38145;53.182;6.284;2022-12-24T15:47:29;7.30;99.90
52159;DHT22;38145;53.182;6.284;2022-12-24T15:50:03;7.30;99.90
52159;DHT22;38145;53.182;6.284;2022-12-24T15:52:29;7.30;99.90
52159;DHT22;38145;53.182;6.284;2022-12-24T15:54:55;7.20;99.90
52159;DHT22;38145;53.182;6.284;2022-12-24T15:57:30;7.10;99.90
52159;DHT22;38145;53.182;6.284;2022-12-24T15:59:57;7.20;99.90
52159;DHT22;38145;53.182;6.284;2022-12-24T16:04:49;7.20;99.90
52159;DHT22;38145;53.182;6.284;2022-12-24T16:07:23;7.20;99.90
52159;DHT22;38145;53.182;6.284;2022-12-24T16:09:49;7.20;99.90
52159;DHT22;38145;53.182;6.284;2022-12-24T16:12:19;7.00;99.90
52159;DHT22;38145;53.182;6.284;2022-12-24T16:14:47;6.90;99.90
52159;DHT22;38145;53.182;6.284;2022-12-24T16:17:15;6.90;99.90
52159;DHT22;38145;53.182;6.284;2022-12-24T16:19:45;7.00;99.90
52159;DHT22;38145;53.182;6.284;2022-12-24T16:22:11;6.90;99.90
52159;DHT22;38145;53.182;6.284;2022-12-24T16:24:56;6.90;99.90
52159;DHT22;38145;53.182;6.284;2022-12-24T16:27:23;6.80;99.90
52159;DHT22;38145;53.182;6.284;2022-12-24T16:29:48;6.90;99.90
52159;DHT22;38145;53.182;6.284;2022-12-24T16:32:23;6.90;99.90
52159;DHT22;38145;53.182;6.284;2022-12-24T16:34:52;6.80;99.90
52159;DHT22;38145;53.182;6.284;2022-12-24T16:37:17;6.70;99.90
52159;DHT22;38145;53.182;6.284;2022-12-24T16:39:43;6.60;99.90
52159;DHT22;38145;53.182;6.284;2022-12-24T16:42:09;6.60;99.90
52159;DHT22;38145;53.182;6.284;2022-12-24T16:44:53;6.70;99.90
52159;DHT22;38145;53.182;6.284;2022-12-24T16:47:21;6.80;99.90
52159;DHT22;38145;53.182;6.284;2022-12-24T16:49:47;6.70;99.90
52159;DHT22;38145;53.182;6.284;2022-12-24T16:52:16;6.70;99.90
52159;DHT22;38145;53.182;6.284;2022-12-24T16:54:42;6.50;99.90
52159;DHT22;38145;53.182;6.284;2022-12-24T16:57:08;6.60;99.90
52159;DHT22;38145;53.182;6.284;2022-12-24T16:59:35;6.60;99.90
52159;DHT22;38145;53.182;6.284;2022-12-24T17:02:01;6.60;99.90
52159;DHT22;38145;53.182;6.284;2022-12-24T17:04:26;6.40;99.90
52159;DHT22;38145;53.182;6.284;2022-12-24T17:06:52;6.60;99.90